sensor_id;sensor_type;location;lat;lon;timestamp;P1;durP1;ratioP1;P2;durP2;ratioP2
76865;SDS011;66647;52.124;5.416;2023-11-18T00:00:55;21.45;;;8.10;;
76865;SDS011;66647;52.124;5.416;2023-11-18T00:03:22;22.08;;;8.20;;
76865;SDS011;66647;52.124;5.416;2023-11-18T00:05:51;19.75;;;7.72;;
76865;SDS011;66647;52.124;5.416;2023-11-18T00:08:18;20.05;;;7.13;;
76865;SDS011;66647;52.124;5.416;2023-11-18T00:10:47;19.20;;;7.75;;
76865;SDS011;66647;52.124;5.416;2023-11-18T00:13:17;23.00;;;8.40;;
76865;SDS011;66647;52.124;5.416;2023-11-18T00:15:43;24.83;;;8.63;;
76865;SDS011;66647;52.124;5.416;2023-11-18T00:18:12;22.50;;;7.97;;
76865;SDS011;66647;52.124;5.416;2023-11-18T00:20:38;21.67;;;7.57;;
76865;SDS011;66647;52.124;5.416;2023-11-18T00:23:05;21.98;;;8.48;;
76865;SDS011;66647;52.124;5.416;2023-11-18T00:25:32;21.15;;;8.38;;
76865;SDS011;66647;52.124;5.416;2023-11-18T00:28:00;21.75;;;7.47;;
76865;SDS011;66647;52.124;5.416;2023-11-18T00:30:26;20.67;;;6.97;;
76865;SDS011;66647;52.124;5.416;2023-11-18T00:32:54;20.42;;;8.80;;
76865;SDS011;66647;52.124;5.416;2023-11-18T00:35:21;20.88;;;8.00;;
76865;SDS011;66647;52.124;5.416;2023-11-18T00:37:47;20.70;;;7.28;;
76865;SDS011;66647;52.124;5.416;2023-11-18T00:40:14;21.10;;;7.40;;
76865;SDS011;66647;52.124;5.416;2023-11-18T00:42:44;22.17;;;8.68;;
76865;SDS011;66647;52.124;5.416;2023-11-18T00:45:14;21.05;;;7.43;;
76865;SDS011;66647;52.124;5.416;2023-11-18T00:47:40;21.63;;;7.60;;
76865;SDS011;66647;52.124;5.416;2023-11-18T00:50:07;20.00;;;7.40;;
76865;SDS011;66647;52.124;5.416;2023-11-18T00:52:35;22.15;;;8.32;;
76865;SDS011;66647;52.124;5.416;2023-11-18T00:55:05;16.38;;;7.18;;
76865;SDS011;66647;52.124;5.416;2023-11-18T00:57:33;21.52;;;8.35;;
76865;SDS011;66647;52.124;5.416;2023-11-18T01:00:00;17.88;;;6.32;;
76865;SDS011;66647;52.124;5.416;2023-11-18T01:02:26;18.40;;;6.70;;
76865;SDS011;66647;52.124;5.416;2023-11-18T01:04:54;18.77;;;6.85;;
76865;SDS011;66647;52.124;5.416;2023-11-18T01:07:21;19.90;;;7.65;;
76865;SDS011;66647;52.124;5.416;2023-11-18T01:09:48;21.63;;;7.10;;
76865;SDS011;66647;52.124;5.416;2023-11-18T01:12:15;20.52;;;7.00;;
76865;SDS011;66647;52.124;5.416;2023-11-18T01:14:41;18.65;;;6.90;;
76865;SDS011;66647;52.124;5.416;2023-11-18T01:17:08;18.00;;;6.78;;
76865;SDS011;66647;52.124;5.416;2023-11-18T01:19:37;20.08;;;6.95;;
76865;SDS011;66647;52.124;5.416;2023-11-18T01:22:04;21.25;;;7.15;;
76865;SDS011;66647;52.124;5.416;2023-11-18T01:24:32;20.30;;;7.38;;
76865;SDS011;66647;52.124;5.416;2023-11-18T01:26:59;19.73;;;7.22;;
76865;SDS011;66647;52.124;5.416;2023-11-18T01:29:26;24.50;;;8.27;;
76865;SDS011;66647;52.124;5.416;2023-11-18T01:31:53;19.77;;;7.82;;
76865;SDS011;66647;52.124;5.416;2023-11-18T01:34:21;18.30;;;8.18;;
76865;SDS011;66647;52.124;5.416;2023-11-18T01:36:49;24.15;;;7.97;;
76865;SDS011;66647;52.124;5.416;2023-11-18T01:39:16;21.75;;;7.82;;
76865;SDS011;66647;52.124;5.416;2023-11-18T01:41:47;19.13;;;7.93;;
76865;SDS011;66647;52.124;5.416;2023-11-18T01:44:15;21.45;;;8.65;;
76865;SDS011;66647;52.124;5.416;2023-11-18T01:46:41;20.98;;;8.15;;
76865;SDS011;66647;52.124;5.416;2023-11-18T01:49:11;23.23;;;8.25;;
76865;SDS011;66647;52.124;5.416;2023-11-18T01:51:42;21.25;;;8.25;;
76865;SDS011;66647;52.124;5.416;2023-11-18T01:54:12;22.60;;;9.02;;
76865;SDS011;66647;52.124;5.416;2023-11-18T01:56:43;24.08;;;7.88;;
76865;SDS011;66647;52.124;5.416;2023-11-18T01:59:12;17.50;;;7.07;;
76865;SDS011;66647;52.124;5.416;2023-11-18T02:01:49;21.83;;;8.18;;
76865;SDS011;66647;52.124;5.416;2023-11-18T02:04:18;19.38;;;7.63;;
76865;SDS011;66647;52.124;5.416;2023-11-18T02:06:50;22.50;;;7.43;;
76865;SDS011;66647;52.124;5.416;2023-11-18T02:09:18;17.80;;;7.25;;
76865;SDS011;66647;52.124;5.416;2023-11-18T02:14:42;25.92;;;7.88;;
76865;SDS011;66647;52.124;5.416;2023-11-18T02:17:10;21.40;;;7.97;;
76865;SDS011;66647;52.124;5.416;2023-11-18T02:19:40;23.15;;;8.70;;
76865;SDS011;66647;52.124;5.416;2023-11-18T02:22:08;23.10;;;7.65;;
76865;SDS011;66647;52.124;5.416;2023-11-18T02:24:37;25.45;;;8.32;;
76865;SDS011;66647;52.124;5.416;2023-11-18T02:27:07;21.75;;;7.88;;
76865;SDS011;66647;52.124;5.416;2023-11-18T02:29:37;19.88;;;8.60;;
76865;SDS011;66647;52.124;5.416;2023-11-18T02:35:38;20.13;;;7.68;;
76865;SDS011;66647;52.124;5.416;2023-11-18T02:37:44;20.48;;;7.70;;
76865;SDS011;66647;52.124;5.416;2023-11-18T02:40:16;21.60;;;8.40;;
76865;SDS011;66647;52.124;5.416;2023-11-18T02:42:47;19.60;;;7.40;;
76865;SDS011;66647;52.124;5.416;2023-11-18T02:45:19;21.63;;;8.38;;
76865;SDS011;66647;52.124;5.416;2023-11-18T02:47:47;22.30;;;9.35;;
76865;SDS011;66647;52.124;5.416;2023-11-18T02:50:15;24.05;;;8.98;;
76865;SDS011;66647;52.124;5.416;2023-11-18T02:52:43;20.85;;;8.32;;
76865;SDS011;66647;52.124;5.416;2023-11-18T02:55:10;20.88;;;8.75;;
76865;SDS011;66647;52.124;5.416;2023-11-18T02:57:38;21.42;;;8.27;;
76865;SDS011;66647;52.124;5.416;2023-11-18T03:00:05;21.88;;;10.55;;
76865;SDS011;66647;52.124;5.416;2023-11-18T03:02:37;20.80;;;9.02;;
76865;SDS011;66647;52.124;5.416;2023-11-18T03:05:06;25.15;;;8.90;;
76865;SDS011;66647;52.124;5.416;2023-11-18T03:07:33;21.88;;;9.27;;
76865;SDS011;66647;52.124;5.416;2023-11-18T03:10:00;23.08;;;8.82;;
76865;SDS011;66647;52.124;5.416;2023-11-18T03:12:27;25.63;;;10.40;;
76865;SDS011;66647;52.124;5.416;2023-11-18T03:14:54;23.83;;;9.77;;
76865;SDS011;66647;52.124;5.416;2023-11-18T03:17:21;26.17;;;9.60;;
76865;SDS011;66647;52.124;5.416;2023-11-18T03:19:48;23.00;;;9.25;;
76865;SDS011;66647;52.124;5.416;2023-11-18T03:22:17;25.15;;;10.02;;
76865;SDS011;66647;52.124;5.416;2023-11-18T03:24:43;22.75;;;8.80;;
76865;SDS011;66647;52.124;5.416;2023-11-18T03:27:10;24.48;;;9.40;;
76865;SDS011;66647;52.124;5.416;2023-11-18T03:29:36;23.00;;;10.43;;
76865;SDS011;66647;52.124;5.416;2023-11-18T03:32:03;20.83;;;9.70;;
76865;SDS011;66647;52.124;5.416;2023-11-18T03:34:31;26.98;;;9.38;;
76865;SDS011;66647;52.124;5.416;2023-11-18T03:36:58;25.15;;;9.60;;
76865;SDS011;66647;52.124;5.416;2023-11-18T03:39:25;22.13;;;10.55;;
76865;SDS011;66647;52.124;5.416;2023-11-18T03:41:53;22.38;;;8.88;;
76865;SDS011;66647;52.124;5.416;2023-11-18T03:44:20;25.92;;;9.93;;
76865;SDS011;66647;52.124;5.416;2023-11-18T03:46:50;24.30;;;9.60;;
76865;SDS011;66647;52.124;5.416;2023-11-18T03:49:17;31.05;;;10.23;;
76865;SDS011;66647;52.124;5.416;2023-11-18T03:51:44;24.80;;;10.15;;
76865;SDS011;66647;52.124;5.416;2023-11-18T03:54:10;22.42;;;9.75;;
76865;SDS011;66647;52.124;5.416;2023-11-18T03:56:38;22.38;;;9.63;;
76865;SDS011;66647;52.124;5.416;2023-11-18T03:59:04;23.58;;;8.90;;
76865;SDS011;66647;52.124;5.416;2023-11-18T04:01:31;24.02;;;9.38;;
76865;SDS011;66647;52.124;5.416;2023-11-18T04:03:59;24.55;;;10.13;;
76865;SDS011;66647;52.124;5.416;2023-11-18T04:06:25;23.20;;;9.95;;
76865;SDS011;66647;52.124;5.416;2023-11-18T04:08:52;21.90;;;8.77;;
76865;SDS011;66647;52.124;5.416;2023-11-18T04:11:19;20.42;;;8.93;;
76865;SDS011;66647;52.124;5.416;2023-11-18T04:13:49;17.48;;;7.90;;
76865;SDS011;66647;52.124;5.416;2023-11-18T04:16:15;23.45;;;8.80;;
76865;SDS011;66647;52.124;5.416;2023-11-18T04:18:43;22.70;;;9.75;;
76865;SDS011;66647;52.124;5.416;2023-11-18T04:21:11;20.73;;;8.27;;
76865;SDS011;66647;52.124;5.416;2023-11-18T04:23:41;19.48;;;8.32;;
76865;SDS011;66647;52.124;5.416;2023-11-18T04:26:08;19.00;;;8.05;;
76865;SDS011;66647;52.124;5.416;2023-11-18T04:28:36;22.25;;;8.52;;
76865;SDS011;66647;52.124;5.416;2023-11-18T04:31:03;22.52;;;7.38;;
76865;SDS011;66647;52.124;5.416;2023-11-18T04:33:31;20.05;;;9.63;;
76865;SDS011;66647;52.124;5.416;2023-11-18T04:35:59;20.50;;;8.52;;
76865;SDS011;66647;52.124;5.416;2023-11-18T04:38:26;24.55;;;8.77;;
76865;SDS011;66647;52.124;5.416;2023-11-18T04:40:52;22.10;;;8.75;;
76865;SDS011;66647;52.124;5.416;2023-11-18T04:43:25;20.30;;;8.18;;
76865;SDS011;66647;52.124;5.416;2023-11-18T04:46:07;20.08;;;8.50;;
76865;SDS011;66647;52.124;5.416;2023-11-18T04:48:40;24.17;;;9.65;;
76865;SDS011;66647;52.124;5.416;2023-11-18T04:51:08;23.20;;;9.55;;
76865;SDS011;66647;52.124;5.416;2023-11-18T04:53:35;25.23;;;8.98;;
76865;SDS011;66647;52.124;5.416;2023-11-18T04:56:01;19.83;;;9.23;;
76865;SDS011;66647;52.124;5.416;2023-11-18T04:58:29;19.98;;;8.70;;
76865;SDS011;66647;52.124;5.416;2023-11-18T05:00:56;19.52;;;8.93;;
76865;SDS011;66647;52.124;5.416;2023-11-18T05:03:23;21.15;;;8.85;;
76865;SDS011;66647;52.124;5.416;2023-11-18T05:05:50;23.30;;;8.88;;
76865;SDS011;66647;52.124;5.416;2023-11-18T05:08:20;21.98;;;8.13;;
76865;SDS011;66647;52.124;5.416;2023-11-18T05:10:48;23.75;;;8.82;;
76865;SDS011;66647;52.124;5.416;2023-11-18T05:13:19;25.35;;;9.48;;
76865;SDS011;66647;52.124;5.416;2023-11-18T05:15:46;22.60;;;9.63;;
76865;SDS011;66647;52.124;5.416;2023-11-18T05:18:13;23.00;;;9.18;;
76865;SDS011;66647;52.124;5.416;2023-11-18T05:20:42;23.23;;;8.88;;
76865;SDS011;66647;52.124;5.416;2023-11-18T05:23:09;27.40;;;10.10;;
76865;SDS011;66647;52.124;5.416;2023-11-18T05:25:44;20.60;;;9.32;;
76865;SDS011;66647;52.124;5.416;2023-11-18T05:28:10;25.67;;;8.75;;
76865;SDS011;66647;52.124;5.416;2023-11-18T05:30:38;24.17;;;10.45;;
76865;SDS011;66647;52.124;5.416;2023-11-18T05:33:07;21.50;;;9.13;;
76865;SDS011;66647;52.124;5.416;2023-11-18T05:35:35;23.05;;;11.02;;
76865;SDS011;66647;52.124;5.416;2023-11-18T05:38:02;19.65;;;9.05;;
76865;SDS011;66647;52.124;5.416;2023-11-18T05:40:32;23.55;;;8.55;;
76865;SDS011;66647;52.124;5.416;2023-11-18T05:43:02;21.75;;;9.27;;
76865;SDS011;66647;52.124;5.416;2023-11-18T05:45:32;23.35;;;9.52;;
76865;SDS011;66647;52.124;5.416;2023-11-18T05:48:18;17.45;;;7.75;;
76865;SDS011;66647;52.124;5.416;2023-11-18T05:50:45;22.98;;;8.43;;
76865;SDS011;66647;52.124;5.416;2023-11-18T05:53:14;23.67;;;8.55;;
76865;SDS011;66647;52.124;5.416;2023-11-18T05:55:40;19.85;;;8.70;;
76865;SDS011;66647;52.124;5.416;2023-11-18T05:58:07;18.70;;;7.72;;
76865;SDS011;66647;52.124;5.416;2023-11-18T06:00:35;24.63;;;8.32;;
76865;SDS011;66647;52.124;5.416;2023-11-18T06:03:07;20.42;;;8.38;;
76865;SDS011;66647;52.124;5.416;2023-11-18T06:05:34;23.55;;;8.27;;
76865;SDS011;66647;52.124;5.416;2023-11-18T06:08:01;17.27;;;7.70;;
76865;SDS011;66647;52.124;5.416;2023-11-18T06:10:27;21.20;;;7.70;;
76865;SDS011;66647;52.124;5.416;2023-11-18T06:12:57;17.60;;;7.32;;
76865;SDS011;66647;52.124;5.416;2023-11-18T06:15:24;17.15;;;7.05;;
76865;SDS011;66647;52.124;5.416;2023-11-18T06:17:51;19.65;;;8.00;;
76865;SDS011;66647;52.124;5.416;2023-11-18T06:20:17;22.00;;;8.07;;
76865;SDS011;66647;52.124;5.416;2023-11-18T06:22:46;19.80;;;6.80;;
76865;SDS011;66647;52.124;5.416;2023-11-18T06:25:13;15.07;;;6.93;;
76865;SDS011;66647;52.124;5.416;2023-11-18T06:27:39;18.52;;;6.97;;
76865;SDS011;66647;52.124;5.416;2023-11-18T06:30:06;18.63;;;7.25;;
76865;SDS011;66647;52.124;5.416;2023-11-18T06:32:33;19.50;;;6.25;;
76865;SDS011;66647;52.124;5.416;2023-11-18T06:35:00;16.88;;;7.20;;
76865;SDS011;66647;52.124;5.416;2023-11-18T06:37:32;16.02;;;6.55;;
76865;SDS011;66647;52.124;5.416;2023-11-18T06:39:59;18.35;;;7.25;;
76865;SDS011;66647;52.124;5.416;2023-11-18T06:42:25;16.23;;;6.70;;
76865;SDS011;66647;52.124;5.416;2023-11-18T06:44:52;18.30;;;6.82;;
76865;SDS011;66647;52.124;5.416;2023-11-18T06:47:18;16.08;;;6.60;;
76865;SDS011;66647;52.124;5.416;2023-11-18T06:49:45;15.82;;;6.60;;
76865;SDS011;66647;52.124;5.416;2023-11-18T06:52:14;20.42;;;6.70;;
76865;SDS011;66647;52.124;5.416;2023-11-18T06:54:41;15.15;;;6.88;;
76865;SDS011;66647;52.124;5.416;2023-11-18T06:57:07;19.95;;;7.18;;
76865;SDS011;66647;52.124;5.416;2023-11-18T06:59:34;18.27;;;5.90;;
76865;SDS011;66647;52.124;5.416;2023-11-18T07:02:01;21.67;;;7.32;;
76865;SDS011;66647;52.124;5.416;2023-11-18T07:04:30;17.55;;;6.63;;
76865;SDS011;66647;52.124;5.416;2023-11-18T07:06:57;22.27;;;6.63;;
76865;SDS011;66647;52.124;5.416;2023-11-18T07:09:23;16.85;;;6.53;;
76865;SDS011;66647;52.124;5.416;2023-11-18T07:11:52;18.05;;;6.70;;
76865;SDS011;66647;52.124;5.416;2023-11-18T07:14:19;18.33;;;6.45;;
76865;SDS011;66647;52.124;5.416;2023-11-18T07:16:45;18.27;;;6.60;;
76865;SDS011;66647;52.124;5.416;2023-11-18T07:19:12;17.33;;;5.97;;
76865;SDS011;66647;52.124;5.416;2023-11-18T07:21:49;15.00;;;5.60;;
76865;SDS011;66647;52.124;5.416;2023-11-18T07:24:16;16.42;;;6.22;;
76865;SDS011;66647;52.124;5.416;2023-11-18T07:26:43;17.08;;;6.38;;
76865;SDS011;66647;52.124;5.416;2023-11-18T07:29:11;20.48;;;6.00;;
76865;SDS011;66647;52.124;5.416;2023-11-18T07:31:38;16.88;;;5.60;;
76865;SDS011;66647;52.124;5.416;2023-11-18T07:34:04;25.35;;;7.10;;
76865;SDS011;66647;52.124;5.416;2023-11-18T07:36:32;18.52;;;5.50;;
76865;SDS011;66647;52.124;5.416;2023-11-18T07:38:59;16.45;;;6.22;;
76865;SDS011;66647;52.124;5.416;2023-11-18T07:41:30;15.30;;;5.57;;
76865;SDS011;66647;52.124;5.416;2023-11-18T07:43:59;20.73;;;6.18;;
76865;SDS011;66647;52.124;5.416;2023-11-18T07:46:27;15.38;;;6.32;;
76865;SDS011;66647;52.124;5.416;2023-11-18T07:48:55;15.73;;;5.80;;
76865;SDS011;66647;52.124;5.416;2023-11-18T07:51:23;17.95;;;6.32;;
76865;SDS011;66647;52.124;5.416;2023-11-18T07:53:50;19.92;;;6.15;;
76865;SDS011;66647;52.124;5.416;2023-11-18T07:56:17;18.30;;;5.70;;
76865;SDS011;66647;52.124;5.416;2023-11-18T07:58:44;16.48;;;6.15;;
76865;SDS011;66647;52.124;5.416;2023-11-18T08:01:12;15.07;;;6.28;;
76865;SDS011;66647;52.124;5.416;2023-11-18T08:03:39;16.38;;;6.47;;
76865;SDS011;66647;52.124;5.416;2023-11-18T08:06:08;15.05;;;6.13;;
76865;SDS011;66647;52.124;5.416;2023-11-18T08:08:34;17.10;;;6.45;;
76865;SDS011;66647;52.124;5.416;2023-11-18T08:11:04;15.93;;;6.32;;
76865;SDS011;66647;52.124;5.416;2023-11-18T08:13:35;12.68;;;5.28;;
76865;SDS011;66647;52.124;5.416;2023-11-18T08:18:55;19.38;;;5.95;;
76865;SDS011;66647;52.124;5.416;2023-11-18T08:21:22;17.30;;;6.07;;
76865;SDS011;66647;52.124;5.416;2023-11-18T08:23:49;15.10;;;5.38;;
76865;SDS011;66647;52.124;5.416;2023-11-18T08:26:19;13.82;;;5.38;;
76865;SDS011;66647;52.124;5.416;2023-11-18T08:28:46;14.05;;;5.85;;
76865;SDS011;66647;52.124;5.416;2023-11-18T08:31:13;14.65;;;5.53;;
76865;SDS011;66647;52.124;5.416;2023-11-18T08:33:42;12.50;;;4.68;;
76865;SDS011;66647;52.124;5.416;2023-11-18T08:36:09;13.70;;;4.53;;
76865;SDS011;66647;52.124;5.416;2023-11-18T08:38:38;14.00;;;5.60;;
76865;SDS011;66647;52.124;5.416;2023-11-18T08:41:10;14.00;;;6.47;;
76865;SDS011;66647;52.124;5.416;2023-11-18T08:43:38;14.30;;;5.20;;
76865;SDS011;66647;52.124;5.416;2023-11-18T08:49:51;9.80;;;4.97;;
76865;SDS011;66647;52.124;5.416;2023-11-18T08:56:27;13.52;;;3.58;;
76865;SDS011;66647;52.124;5.416;2023-11-18T09:07:48;12.50;;;3.83;;
76865;SDS011;66647;52.124;5.416;2023-11-18T09:10:16;11.73;;;4.60;;
76865;SDS011;66647;52.124;5.416;2023-11-18T09:12:43;11.98;;;3.88;;
76865;SDS011;66647;52.124;5.416;2023-11-18T09:15:11;11.32;;;4.00;;
76865;SDS011;66647;52.124;5.416;2023-11-18T09:18:01;9.77;;;3.78;;
76865;SDS011;66647;52.124;5.416;2023-11-18T09:20:28;10.50;;;3.78;;
76865;SDS011;66647;52.124;5.416;2023-11-18T09:22:55;10.18;;;3.45;;
76865;SDS011;66647;52.124;5.416;2023-11-18T09:25:22;14.57;;;3.88;;
76865;SDS011;66647;52.124;5.416;2023-11-18T09:27:49;14.40;;;4.75;;
76865;SDS011;66647;52.124;5.416;2023-11-18T09:30:15;11.90;;;4.07;;
76865;SDS011;66647;52.124;5.416;2023-11-18T09:32:42;11.13;;;3.88;;
76865;SDS011;66647;52.124;5.416;2023-11-18T09:35:15;8.75;;;3.38;;
76865;SDS011;66647;52.124;5.416;2023-11-18T09:37:43;10.18;;;3.78;;
76865;SDS011;66647;52.124;5.416;2023-11-18T09:40:14;11.15;;;4.25;;
76865;SDS011;66647;52.124;5.416;2023-11-18T09:42:47;10.40;;;3.00;;
76865;SDS011;66647;52.124;5.416;2023-11-18T09:45:15;10.07;;;3.42;;
76865;SDS011;66647;52.124;5.416;2023-11-18T09:47:48;10.00;;;2.70;;
76865;SDS011;66647;52.124;5.416;2023-11-18T09:50:22;9.52;;;2.97;;
76865;SDS011;66647;52.124;5.416;2023-11-18T09:53:00;9.75;;;3.88;;
76865;SDS011;66647;52.124;5.416;2023-11-18T09:55:45;11.82;;;3.47;;
76865;SDS011;66647;52.124;5.416;2023-11-18T09:58:27;9.93;;;3.03;;
76865;SDS011;66647;52.124;5.416;2023-11-18T10:01:07;7.72;;;2.80;;
76865;SDS011;66647;52.124;5.416;2023-11-18T10:03:40;8.35;;;3.13;;
76865;SDS011;66647;52.124;5.416;2023-11-18T10:06:13;8.57;;;2.78;;
76865;SDS011;66647;52.124;5.416;2023-11-18T10:08:43;7.45;;;3.17;;
76865;SDS011;66647;52.124;5.416;2023-11-18T10:11:14;9.93;;;3.53;;
76865;SDS011;66647;52.124;5.416;2023-11-18T10:13:43;11.63;;;3.15;;
76865;SDS011;66647;52.124;5.416;2023-11-18T10:16:17;10.05;;;2.83;;
76865;SDS011;66647;52.124;5.416;2023-11-18T10:18:45;9.27;;;2.72;;
76865;SDS011;66647;52.124;5.416;2023-11-18T10:21:20;7.88;;;2.63;;
76865;SDS011;66647;52.124;5.416;2023-11-18T10:24:10;9.98;;;2.58;;
76865;SDS011;66647;52.124;5.416;2023-11-18T10:26:42;10.02;;;2.88;;
76865;SDS011;66647;52.124;5.416;2023-11-18T10:29:14;7.63;;;2.53;;
76865;SDS011;66647;52.124;5.416;2023-11-18T10:31:41;11.90;;;2.53;;
76865;SDS011;66647;52.124;5.416;2023-11-18T10:34:14;10.60;;;2.92;;
76865;SDS011;66647;52.124;5.416;2023-11-18T10:36:58;8.45;;;2.60;;
76865;SDS011;66647;52.124;5.416;2023-11-18T10:39:29;8.50;;;3.00;;
76865;SDS011;66647;52.124;5.416;2023-11-18T10:42:01;7.03;;;2.35;;
76865;SDS011;66647;52.124;5.416;2023-11-18T10:44:33;9.95;;;3.10;;
76865;SDS011;66647;52.124;5.416;2023-11-18T10:47:00;12.27;;;2.67;;
76865;SDS011;66647;52.124;5.416;2023-11-18T10:49:28;8.43;;;2.63;;
76865;SDS011;66647;52.124;5.416;2023-11-18T10:55:14;9.15;;;2.75;;
76865;SDS011;66647;52.124;5.416;2023-11-18T10:57:50;8.75;;;2.55;;
76865;SDS011;66647;52.124;5.416;2023-11-18T11:00:20;13.32;;;2.95;;
76865;SDS011;66647;52.124;5.416;2023-11-18T11:02:58;10.55;;;1.67;;
76865;SDS011;66647;52.124;5.416;2023-11-18T11:05:29;8.95;;;1.92;;
76865;SDS011;66647;52.124;5.416;2023-11-18T11:08:04;9.88;;;2.30;;
76865;SDS011;66647;52.124;5.416;2023-11-18T11:10:32;8.63;;;2.50;;
76865;SDS011;66647;52.124;5.416;2023-11-18T11:13:00;8.02;;;2.67;;
76865;SDS011;66647;52.124;5.416;2023-11-18T11:15:32;7.05;;;1.98;;
76865;SDS011;66647;52.124;5.416;2023-11-18T11:18:20;12.15;;;2.70;;
76865;SDS011;66647;52.124;5.416;2023-11-18T11:20:57;7.15;;;2.08;;
76865;SDS011;66647;52.124;5.416;2023-11-18T11:23:34;6.65;;;1.88;;
76865;SDS011;66647;52.124;5.416;2023-11-18T11:26:13;7.45;;;1.73;;
76865;SDS011;66647;52.124;5.416;2023-11-18T11:34:17;7.30;;;2.45;;
76865;SDS011;66647;52.124;5.416;2023-11-18T11:36:47;10.80;;;2.20;;
76865;SDS011;66647;52.124;5.416;2023-11-18T11:39:18;8.20;;;2.05;;
76865;SDS011;66647;52.124;5.416;2023-11-18T11:41:52;5.28;;;1.77;;
76865;SDS011;66647;52.124;5.416;2023-11-18T11:44:24;8.02;;;2.25;;
76865;SDS011;66647;52.124;5.416;2023-11-18T11:47:03;11.98;;;1.77;;
76865;SDS011;66647;52.124;5.416;2023-11-18T11:52:23;6.18;;;1.40;;
76865;SDS011;66647;52.124;5.416;2023-11-18T11:58:04;5.75;;;1.60;;
76865;SDS011;66647;52.124;5.416;2023-11-18T12:00:53;6.75;;;2.47;;
76865;SDS011;66647;52.124;5.416;2023-11-18T12:03:57;3.50;;;1.13;;
76865;SDS011;66647;52.124;5.416;2023-11-18T12:06:34;5.30;;;1.25;;
76865;SDS011;66647;52.124;5.416;2023-11-18T12:09:11;5.28;;;1.95;;
76865;SDS011;66647;52.124;5.416;2023-11-18T12:11:46;7.18;;;1.52;;
76865;SDS011;66647;52.124;5.416;2023-11-18T12:14:16;5.70;;;1.35;;
76865;SDS011;66647;52.124;5.416;2023-11-18T12:17:01;5.97;;;0.95;;
76865;SDS011;66647;52.124;5.416;2023-11-18T12:19:48;4.25;;;1.05;;
76865;SDS011;66647;52.124;5.416;2023-11-18T12:22:17;5.75;;;1.08;;
76865;SDS011;66647;52.124;5.416;2023-11-18T12:35:25;5.95;;;1.08;;
76865;SDS011;66647;52.124;5.416;2023-11-18T12:41:01;5.60;;;0.77;;
76865;SDS011;66647;52.124;5.416;2023-11-18T12:48:57;3.78;;;0.63;;
76865;SDS011;66647;52.124;5.416;2023-11-18T12:51:26;3.75;;;0.43;;
76865;SDS011;66647;52.124;5.416;2023-11-18T12:53:53;5.38;;;0.55;;
76865;SDS011;66647;52.124;5.416;2023-11-18T12:56:26;8.32;;;0.40;;
76865;SDS011;66647;52.124;5.416;2023-11-18T12:58:56;4.65;;;0.98;;
76865;SDS011;66647;52.124;5.416;2023-11-18T13:01:25;1.92;;;0.30;;
76865;SDS011;66647;52.124;5.416;2023-11-18T13:03:59;4.75;;;0.70;;
76865;SDS011;66647;52.124;5.416;2023-11-18T13:06:28;3.75;;;0.20;;
76865;SDS011;66647;52.124;5.416;2023-11-18T13:08:56;2.10;;;0.30;;
76865;SDS011;66647;52.124;5.416;2023-11-18T13:11:24;4.05;;;0.25;;
76865;SDS011;66647;52.124;5.416;2023-11-18T13:13:53;3.35;;;0.22;;
76865;SDS011;66647;52.124;5.416;2023-11-18T13:16:21;1.88;;;0.22;;
76865;SDS011;66647;52.124;5.416;2023-11-18T13:18:53;5.50;;;0.40;;
76865;SDS011;66647;52.124;5.416;2023-11-18T13:21:26;3.47;;;0.40;;
76865;SDS011;66647;52.124;5.416;2023-11-18T13:23:58;3.65;;;0.32;;
76865;SDS011;66647;52.124;5.416;2023-11-18T13:26:25;3.65;;;0.40;;
76865;SDS011;66647;52.124;5.416;2023-11-18T13:28:52;3.75;;;0.52;;
76865;SDS011;66647;52.124;5.416;2023-11-18T13:31:20;2.33;;;0.50;;
76865;SDS011;66647;52.124;5.416;2023-11-18T13:33:47;2.10;;;0.45;;
76865;SDS011;66647;52.124;5.416;2023-11-18T13:36:15;5.57;;;0.98;;
76865;SDS011;66647;52.124;5.416;2023-11-18T13:38:41;3.42;;;0.50;;
76865;SDS011;66647;52.124;5.416;2023-11-18T13:41:08;3.30;;;0.20;;
76865;SDS011;66647;52.124;5.416;2023-11-18T13:46:13;3.95;;;0.40;;
76865;SDS011;66647;52.124;5.416;2023-11-18T13:48:40;4.78;;;0.32;;
76865;SDS011;66647;52.124;5.416;2023-11-18T13:51:08;3.47;;;0.20;;
76865;SDS011;66647;52.124;5.416;2023-11-18T13:53:39;2.90;;;0.65;;
76865;SDS011;66647;52.124;5.416;2023-11-18T13:56:07;2.08;;;0.13;;
76865;SDS011;66647;52.124;5.416;2023-11-18T13:58:41;1.92;;;0.35;;
76865;SDS011;66647;52.124;5.416;2023-11-18T14:01:10;2.70;;;0.45;;
76865;SDS011;66647;52.124;5.416;2023-11-18T14:03:41;4.13;;;0.73;;
76865;SDS011;66647;52.124;5.416;2023-11-18T14:06:10;2.30;;;0.30;;
76865;SDS011;66647;52.124;5.416;2023-11-18T14:08:37;3.13;;;0.20;;
76865;SDS011;66647;52.124;5.416;2023-11-18T14:11:07;5.32;;;0.20;;
76865;SDS011;66647;52.124;5.416;2023-11-18T14:13:43;1.65;;;0.43;;
76865;SDS011;66647;52.124;5.416;2023-11-18T14:16:10;1.70;;;0.13;;
76865;SDS011;66647;52.124;5.416;2023-11-18T14:18:39;2.00;;;0.28;;
76865;SDS011;66647;52.124;5.416;2023-11-18T14:21:08;0.98;;;0.10;;
76865;SDS011;66647;52.124;5.416;2023-11-18T14:23:35;2.20;;;0.43;;
76865;SDS011;66647;52.124;5.416;2023-11-18T14:26:04;2.13;;;0.13;;
76865;SDS011;66647;52.124;5.416;2023-11-18T14:28:32;2.13;;;0.55;;
76865;SDS011;66647;52.124;5.416;2023-11-18T14:31:03;2.13;;;0.10;;
76865;SDS011;66647;52.124;5.416;2023-11-18T14:33:30;2.08;;;0.10;;
76865;SDS011;66647;52.124;5.416;2023-11-18T14:35:59;2.53;;;0.13;;
76865;SDS011;66647;52.124;5.416;2023-11-18T14:38:33;1.92;;;0.10;;
76865;SDS011;66647;52.124;5.416;2023-11-18T14:41:00;2.63;;;0.15;;
76865;SDS011;66647;52.124;5.416;2023-11-18T14:43:27;0.90;;;0.10;;
76865;SDS011;66647;52.124;5.416;2023-11-18T14:45:57;1.13;;;0.10;;
76865;SDS011;66647;52.124;5.416;2023-11-18T14:48:26;1.48;;;0.10;;
76865;SDS011;66647;52.124;5.416;2023-11-18T14:50:53;0.88;;;0.10;;
76865;SDS011;66647;52.124;5.416;2023-11-18T14:53:19;1.58;;;0.10;;
76865;SDS011;66647;52.124;5.416;2023-11-18T14:55:46;2.20;;;0.17;;
76865;SDS011;66647;52.124;5.416;2023-11-18T14:58:14;0.75;;;0.10;;
76865;SDS011;66647;52.124;5.416;2023-11-18T15:00:41;1.38;;;0.10;;
76865;SDS011;66647;52.124;5.416;2023-11-18T15:03:09;1.55;;;0.50;;
76865;SDS011;66647;52.124;5.416;2023-11-18T15:05:36;0.98;;;0.10;;
76865;SDS011;66647;52.124;5.416;2023-11-18T15:08:13;1.90;;;0.73;;
76865;SDS011;66647;52.124;5.416;2023-11-18T15:10:42;0.70;;;0.10;;
76865;SDS011;66647;52.124;5.416;2023-11-18T15:13:10;1.52;;;0.60;;
76865;SDS011;66647;52.124;5.416;2023-11-18T15:15:44;2.15;;;0.60;;
76865;SDS011;66647;52.124;5.416;2023-11-18T15:18:14;1.45;;;0.40;;
76865;SDS011;66647;52.124;5.416;2023-11-18T15:20:43;5.15;;;0.43;;
76865;SDS011;66647;52.124;5.416;2023-11-18T15:25:43;2.80;;;0.30;;
76865;SDS011;66647;52.124;5.416;2023-11-18T15:28:10;0.82;;;0.10;;
76865;SDS011;66647;52.124;5.416;2023-11-18T15:30:36;1.20;;;0.20;;
76865;SDS011;66647;52.124;5.416;2023-11-18T15:33:03;1.17;;;0.22;;
76865;SDS011;66647;52.124;5.416;2023-11-18T15:35:30;1.55;;;0.52;;
76865;SDS011;66647;52.124;5.416;2023-11-18T15:37:57;1.75;;;0.90;;
76865;SDS011;66647;52.124;5.416;2023-11-18T15:40:24;0.75;;;0.13;;
76865;SDS011;66647;52.124;5.416;2023-11-18T15:42:52;1.30;;;0.35;;
76865;SDS011;66647;52.124;5.416;2023-11-18T15:45:20;1.45;;;0.55;;
76865;SDS011;66647;52.124;5.416;2023-11-18T15:47:52;1.25;;;0.20;;
76865;SDS011;66647;52.124;5.416;2023-11-18T15:50:20;0.95;;;0.20;;
76865;SDS011;66647;52.124;5.416;2023-11-18T15:52:48;0.90;;;0.35;;
76865;SDS011;66647;52.124;5.416;2023-11-18T15:55:17;1.80;;;0.13;;